sensor_id;sensor_type;location;lat;lon;timestamp;pressure;altitude;pressure_sealevel;temperature;humidity
46574;BME280;32299;53.366;-1.544;2022-07-03T00:01:59;98981.65;;;14.61;43.75
46574;BME280;32299;53.366;-1.544;2022-07-03T00:04:26;98983.96;;;14.44;43.68
46574;BME280;32299;53.366;-1.544;2022-07-03T00:06:54;98980.42;;;14.49;43.19
46574;BME280;32299;53.366;-1.544;2022-07-03T00:09:22;98981.97;;;14.34;44.25
46574;BME280;32299;53.366;-1.544;2022-07-03T00:11:49;98981.18;;;13.96;44.60
46574;BME280;32299;53.366;-1.544;2022-07-03T00:14:16;98983.37;;;14.65;44.04
46574;BME280;32299;53.366;-1.544;2022-07-03T00:16:44;98984.79;;;14.41;44.67
46574;BME280;32299;53.366;-1.544;2022-07-03T00:19:11;98983.74;;;13.95;44.83
46574;BME280;32299;53.366;-1.544;2022-07-03T00:21:44;98980.15;;;14.35;44.58
46574;BME280;32299;53.366;-1.544;2022-07-03T00:24:19;98980.48;;;14.67;44.02
46574;BME280;32299;53.366;-1.544;2022-07-03T00:26:51;98982.72;;;14.36;44.45
46574;BME280;32299;53.366;-1.544;2022-07-03T00:29:21;98980.77;;;14.00;46.09
46574;BME280;32299;53.366;-1.544;2022-07-03T00:31:49;98981.14;;;14.20;44.90
46574;BME280;32299;53.366;-1.544;2022-07-03T00:34:17;98982.93;;;14.79;44.12
46574;BME280;32299;53.366;-1.544;2022-07-03T00:36:46;98981.45;;;14.33;43.70
46574;BME280;32299;53.366;-1.544;2022-07-03T00:39:14;98980.07;;;14.07;44.22
46574;BME280;32299;53.366;-1.544;2022-07-03T00:41:44;98982.10;;;14.63;43.23
46574;BME280;32299;53.366;-1.544;2022-07-03T00:44:11;98983.69;;;14.71;42.82
46574;BME280;32299;53.366;-1.544;2022-07-03T00:46:40;98982.94;;;14.66;42.07
46574;BME280;32299;53.366;-1.544;2022-07-03T00:49:10;98980.60;;;14.70;42.27
46574;BME280;32299;53.366;-1.544;2022-07-03T00:51:39;98980.70;;;14.93;41.84
46574;BME280;32299;53.366;-1.544;2022-07-03T00:54:07;98976.85;;;14.97;42.29
46574;BME280;32299;53.366;-1.544;2022-07-03T00:56:38;98976.21;;;14.88;42.35
46574;BME280;32299;53.366;-1.544;2022-07-03T00:59:05;98977.16;;;14.94;42.17
46574;BME280;32299;53.366;-1.544;2022-07-03T01:01:35;98978.50;;;14.76;42.03
46574;BME280;32299;53.366;-1.544;2022-07-03T01:04:12;98981.17;;;14.52;43.41
46574;BME280;32299;53.366;-1.544;2022-07-03T01:06:51;98984.26;;;14.61;42.95
46574;BME280;32299;53.366;-1.544;2022-07-03T01:09:26;98986.81;;;14.55;43.49
46574;BME280;32299;53.366;-1.544;2022-07-03T01:12:02;98984.52;;;13.83;44.45
46574;BME280;32299;53.366;-1.544;2022-07-03T01:14:37;98986.87;;;13.75;44.74
46574;BME280;32299;53.366;-1.544;2022-07-03T01:17:09;98987.40;;;14.01;43.78
46574;BME280;32299;53.366;-1.544;2022-07-03T01:19:39;98983.94;;;14.05;44.20
46574;BME280;32299;53.366;-1.544;2022-07-03T01:22:28;98987.06;;;14.65;43.46
46574;BME280;32299;53.366;-1.544;2022-07-03T01:25:15;98986.21;;;14.65;43.23
46574;BME280;32299;53.366;-1.544;2022-07-03T01:28:08;98984.14;;;14.17;43.79
46574;BME280;32299;53.366;-1.544;2022-07-03T01:30:39;98982.80;;;14.08;44.35
46574;BME280;32299;53.366;-1.544;2022-07-03T01:33:09;98983.80;;;13.92;44.56
46574;BME280;32299;53.366;-1.544;2022-07-03T01:35:40;98985.44;;;13.21;46.39
46574;BME280;32299;53.366;-1.544;2022-07-03T01:38:10;98984.64;;;13.57;46.06
46574;BME280;32299;53.366;-1.544;2022-07-03T01:40:40;98982.33;;;13.54;45.52
46574;BME280;32299;53.366;-1.544;2022-07-03T01:43:10;98977.45;;;14.23;44.65
46574;BME280;32299;53.366;-1.544;2022-07-03T01:45:41;98976.34;;;13.77;45.51
46574;BME280;32299;53.366;-1.544;2022-07-03T01:48:10;98973.33;;;13.40;46.30
46574;BME280;32299;53.366;-1.544;2022-07-03T01:50:38;98976.50;;;12.95;47.34
46574;BME280;32299;53.366;-1.544;2022-07-03T01:53:08;98975.31;;;13.47;46.55
46574;BME280;32299;53.366;-1.544;2022-07-03T01:55:38;98977.77;;;13.64;46.02
46574;BME280;32299;53.366;-1.544;2022-07-03T01:58:06;98977.92;;;13.84;45.63
46574;BME280;32299;53.366;-1.544;2022-07-03T02:00:40;98970.95;;;14.13;44.78
46574;BME280;32299;53.366;-1.544;2022-07-03T02:03:09;98975.93;;;13.94;45.01
46574;BME280;32299;53.366;-1.544;2022-07-03T02:05:39;98971.87;;;14.25;44.51
46574;BME280;32299;53.366;-1.544;2022-07-03T02:08:17;98972.20;;;14.56;43.78
46574;BME280;32299;53.366;-1.544;2022-07-03T02:10:55;98976.21;;;14.64;43.62
46574;BME280;32299;53.366;-1.544;2022-07-03T02:13:28;98975.69;;;13.82;43.95
46574;BME280;32299;53.366;-1.544;2022-07-03T02:15:58;98974.83;;;14.30;43.67
46574;BME280;32299;53.366;-1.544;2022-07-03T02:18:27;98970.39;;;14.36;42.88
46574;BME280;32299;53.366;-1.544;2022-07-03T02:21:03;98967.83;;;14.51;43.26
46574;BME280;32299;53.366;-1.544;2022-07-03T02:23:32;98967.81;;;14.41;43.28
46574;BME280;32299;53.366;-1.544;2022-07-03T02:26:06;98966.22;;;14.52;43.14
46574;BME280;32299;53.366;-1.544;2022-07-03T02:28:50;98963.55;;;14.45;43.40
46574;BME280;32299;53.366;-1.544;2022-07-03T02:31:18;98962.52;;;14.15;42.75
46574;BME280;32299;53.366;-1.544;2022-07-03T02:33:51;98960.02;;;14.26;42.63
46574;BME280;32299;53.366;-1.544;2022-07-03T02:36:24;98960.92;;;14.36;42.65
46574;BME280;32299;53.366;-1.544;2022-07-03T02:38:57;98964.02;;;14.27;42.72
46574;BME280;32299;53.366;-1.544;2022-07-03T02:41:29;98962.84;;;14.35;42.42
46574;BME280;32299;53.366;-1.544;2022-07-03T02:44:02;98963.09;;;14.55;42.65
46574;BME280;32299;53.366;-1.544;2022-07-03T02:46:47;98965.23;;;14.54;42.57
46574;BME280;32299;53.366;-1.544;2022-07-03T02:49:41;98968.62;;;14.79;42.32
46574;BME280;32299;53.366;-1.544;2022-07-03T02:52:14;98971.58;;;14.14;42.54
46574;BME280;32299;53.366;-1.544;2022-07-03T02:54:46;98971.99;;;14.37;42.64
46574;BME280;32299;53.366;-1.544;2022-07-03T02:57:16;98973.17;;;14.58;42.52
46574;BME280;32299;53.366;-1.544;2022-07-03T02:59:53;98972.80;;;14.04;42.71
46574;BME280;32299;53.366;-1.544;2022-07-03T03:02:33;98970.10;;;14.19;43.01
46574;BME280;32299;53.366;-1.544;2022-07-03T03:05:06;98966.16;;;13.65;43.28
46574;BME280;32299;53.366;-1.544;2022-07-03T03:07:42;98969.62;;;14.44;43.05
46574;BME280;32299;53.366;-1.544;2022-07-03T03:10:14;98972.55;;;14.03;42.57
46574;BME280;32299;53.366;-1.544;2022-07-03T03:12:47;98971.26;;;13.98;42.87
46574;BME280;32299;53.366;-1.544;2022-07-03T03:15:20;98973.71;;;14.41;42.82
46574;BME280;32299;53.366;-1.544;2022-07-03T03:17:52;98972.13;;;14.22;42.86
46574;BME280;32299;53.366;-1.544;2022-07-03T03:20:29;98975.58;;;14.08;43.07
46574;BME280;32299;53.366;-1.544;2022-07-03T03:23:09;98977.59;;;14.14;42.81
46574;BME280;32299;53.366;-1.544;2022-07-03T03:25:37;98974.32;;;14.45;42.60
46574;BME280;32299;53.366;-1.544;2022-07-03T03:28:05;98971.16;;;13.69;43.63
46574;BME280;32299;53.366;-1.544;2022-07-03T03:30:32;98973.85;;;14.21;43.21
46574;BME280;32299;53.366;-1.544;2022-07-03T03:33:02;98971.64;;;14.22;43.31
46574;BME280;32299;53.366;-1.544;2022-07-03T03:35:30;98971.06;;;13.81;43.62
46574;BME280;32299;53.366;-1.544;2022-07-03T03:37:57;98971.65;;;13.99;44.36
46574;BME280;32299;53.366;-1.544;2022-07-03T03:40:24;98970.56;;;14.08;43.92
46574;BME280;32299;53.366;-1.544;2022-07-03T03:42:51;98974.39;;;14.23;43.38
46574;BME280;32299;53.366;-1.544;2022-07-03T03:45:18;98974.51;;;14.33;43.14
46574;BME280;32299;53.366;-1.544;2022-07-03T03:47:45;98977.06;;;14.11;43.00
46574;BME280;32299;53.366;-1.544;2022-07-03T03:50:12;98976.08;;;13.20;45.40
46574;BME280;32299;53.366;-1.544;2022-07-03T03:52:39;98975.55;;;14.19;43.97
46574;BME280;32299;53.366;-1.544;2022-07-03T03:55:06;98977.48;;;14.05;43.52
46574;BME280;32299;53.366;-1.544;2022-07-03T03:57:34;98978.86;;;14.39;43.43
46574;BME280;32299;53.366;-1.544;2022-07-03T04:00:01;98979.47;;;13.18;47.46
46574;BME280;32299;53.366;-1.544;2022-07-03T04:02:28;98985.80;;;13.01;46.89
46574;BME280;32299;53.366;-1.544;2022-07-03T04:04:55;98979.13;;;13.97;44.99
46574;BME280;32299;53.366;-1.544;2022-07-03T04:07:23;98982.19;;;14.00;43.88
46574;BME280;32299;53.366;-1.544;2022-07-03T04:09:50;98986.17;;;13.65;46.01
46574;BME280;32299;53.366;-1.544;2022-07-03T04:12:17;98983.29;;;14.27;45.03
46574;BME280;32299;53.366;-1.544;2022-07-03T04:14:44;98990.38;;;13.33;46.80
46574;BME280;32299;53.366;-1.544;2022-07-03T04:17:11;98996.74;;;13.78;46.12
46574;BME280;32299;53.366;-1.544;2022-07-03T04:19:38;98994.77;;;13.98;45.06
46574;BME280;32299;53.366;-1.544;2022-07-03T04:22:05;98994.70;;;13.94;45.12
46574;BME280;32299;53.366;-1.544;2022-07-03T04:24:32;98995.26;;;13.49;46.10
46574;BME280;32299;53.366;-1.544;2022-07-03T04:26:59;98993.89;;;14.06;44.80
46574;BME280;32299;53.366;-1.544;2022-07-03T04:29:27;98994.83;;;14.18;44.33
46574;BME280;32299;53.366;-1.544;2022-07-03T04:31:53;98996.95;;;14.63;44.07
46574;BME280;32299;53.366;-1.544;2022-07-03T04:34:21;98995.59;;;14.65;44.31
46574;BME280;32299;53.366;-1.544;2022-07-03T04:36:48;99000.98;;;14.51;44.09
46574;BME280;32299;53.366;-1.544;2022-07-03T04:39:15;98998.44;;;14.53;43.92
46574;BME280;32299;53.366;-1.544;2022-07-03T04:41:42;99001.24;;;14.71;44.26
46574;BME280;32299;53.366;-1.544;2022-07-03T04:44:10;99002.00;;;14.57;44.09
46574;BME280;32299;53.366;-1.544;2022-07-03T04:46:38;99001.16;;;14.27;45.69
46574;BME280;32299;53.366;-1.544;2022-07-03T04:49:05;99001.68;;;13.40;48.16
46574;BME280;32299;53.366;-1.544;2022-07-03T04:51:32;99003.00;;;14.55;45.56
46574;BME280;32299;53.366;-1.544;2022-07-03T04:53:59;99002.89;;;14.71;45.30
46574;BME280;32299;53.366;-1.544;2022-07-03T04:56:26;99004.54;;;14.33;46.07
46574;BME280;32299;53.366;-1.544;2022-07-03T04:58:53;99004.72;;;14.32;46.95
46574;BME280;32299;53.366;-1.544;2022-07-03T05:01:20;99005.80;;;13.89;48.56
46574;BME280;32299;53.366;-1.544;2022-07-03T05:03:47;99009.36;;;13.86;48.51
46574;BME280;32299;53.366;-1.544;2022-07-03T05:06:15;99009.97;;;13.86;48.88
46574;BME280;32299;53.366;-1.544;2022-07-03T05:08:42;99014.79;;;14.49;46.74
46574;BME280;32299;53.366;-1.544;2022-07-03T05:11:10;99014.37;;;14.32;48.63
46574;BME280;32299;53.366;-1.544;2022-07-03T05:13:36;99018.02;;;13.87;49.38
46574;BME280;32299;53.366;-1.544;2022-07-03T05:16:04;99021.42;;;14.04;49.91
46574;BME280;32299;53.366;-1.544;2022-07-03T05:18:33;99021.60;;;13.65;49.10
46574;BME280;32299;53.366;-1.544;2022-07-03T05:21:00;99015.27;;;14.10;48.09
46574;BME280;32299;53.366;-1.544;2022-07-03T05:23:27;99019.41;;;14.81;46.59
46574;BME280;32299;53.366;-1.544;2022-07-03T05:25:54;99024.05;;;14.27;47.85
46574;BME280;32299;53.366;-1.544;2022-07-03T05:28:21;99026.08;;;14.23;48.50
46574;BME280;32299;53.366;-1.544;2022-07-03T05:30:48;99029.02;;;13.79;49.44
46574;BME280;32299;53.366;-1.544;2022-07-03T05:33:15;99029.37;;;14.80;47.98
46574;BME280;32299;53.366;-1.544;2022-07-03T05:35:42;99030.46;;;15.12;46.81
46574;BME280;32299;53.366;-1.544;2022-07-03T05:38:09;99030.69;;;14.95;46.84
46574;BME280;32299;53.366;-1.544;2022-07-03T05:40:36;99029.60;;;15.61;45.78
46574;BME280;32299;53.366;-1.544;2022-07-03T05:43:03;99031.09;;;15.57;45.49
46574;BME280;32299;53.366;-1.544;2022-07-03T05:45:30;99037.96;;;15.38;45.95
46574;BME280;32299;53.366;-1.544;2022-07-03T05:47:57;99042.21;;;15.68;45.45
46574;BME280;32299;53.366;-1.544;2022-07-03T05:50:24;99039.99;;;15.77;44.73
46574;BME280;32299;53.366;-1.544;2022-07-03T05:52:51;99045.94;;;15.33;46.80
46574;BME280;32299;53.366;-1.544;2022-07-03T05:55:18;99048.74;;;14.58;47.81
46574;BME280;32299;53.366;-1.544;2022-07-03T05:57:46;99045.47;;;14.92;46.75
46574;BME280;32299;53.366;-1.544;2022-07-03T06:00:14;99048.19;;;14.58;49.20
46574;BME280;32299;53.366;-1.544;2022-07-03T06:02:41;99050.26;;;14.81;47.30
46574;BME280;32299;53.366;-1.544;2022-07-03T06:05:09;99047.92;;;14.17;49.66
46574;BME280;32299;53.366;-1.544;2022-07-03T06:07:35;99047.04;;;15.26;46.69
46574;BME280;32299;53.366;-1.544;2022-07-03T06:10:04;99044.06;;;14.86;48.03
46574;BME280;32299;53.366;-1.544;2022-07-03T06:12:31;99045.72;;;14.83;47.85
46574;BME280;32299;53.366;-1.544;2022-07-03T06:14:58;99046.16;;;15.38;47.65
46574;BME280;32299;53.366;-1.544;2022-07-03T06:17:25;99047.79;;;15.31;46.95
46574;BME280;32299;53.366;-1.544;2022-07-03T06:19:52;99053.81;;;14.77;48.95
46574;BME280;32299;53.366;-1.544;2022-07-03T06:22:19;99054.95;;;15.27;48.10
46574;BME280;32299;53.366;-1.544;2022-07-03T06:24:46;99052.81;;;15.06;48.27
46574;BME280;32299;53.366;-1.544;2022-07-03T06:27:13;99051.11;;;15.81;46.56
46574;BME280;32299;53.366;-1.544;2022-07-03T06:29:40;99057.49;;;14.78;48.60
46574;BME280;32299;53.366;-1.544;2022-07-03T06:32:07;99056.05;;;15.22;48.02
46574;BME280;32299;53.366;-1.544;2022-07-03T06:34:35;99054.17;;;16.09;46.54
46574;BME280;32299;53.366;-1.544;2022-07-03T06:37:02;99055.97;;;15.29;47.03
46574;BME280;32299;53.366;-1.544;2022-07-03T06:39:29;99051.30;;;16.00;45.68
46574;BME280;32299;53.366;-1.544;2022-07-03T06:41:56;99054.12;;;15.97;46.75
46574;BME280;32299;53.366;-1.544;2022-07-03T06:44:23;99052.65;;;16.52;45.58
46574;BME280;32299;53.366;-1.544;2022-07-03T06:46:50;99050.40;;;16.36;45.51
46574;BME280;32299;53.366;-1.544;2022-07-03T06:49:18;99052.56;;;16.42;45.59
46574;BME280;32299;53.366;-1.544;2022-07-03T06:51:45;99050.01;;;16.86;44.60
46574;BME280;32299;53.366;-1.544;2022-07-03T06:54:12;99049.96;;;16.92;45.18
46574;BME280;32299;53.366;-1.544;2022-07-03T06:56:40;99057.11;;;16.42;45.56
46574;BME280;32299;53.366;-1.544;2022-07-03T06:59:08;99058.28;;;16.49;45.16
46574;BME280;32299;53.366;-1.544;2022-07-03T07:01:36;99059.92;;;16.45;45.45
46574;BME280;32299;53.366;-1.544;2022-07-03T07:04:03;99061.69;;;16.21;46.02
46574;BME280;32299;53.366;-1.544;2022-07-03T07:06:30;99063.80;;;15.97;46.12
46574;BME280;32299;53.366;-1.544;2022-07-03T07:08:57;99065.44;;;16.51;44.98
46574;BME280;32299;53.366;-1.544;2022-07-03T07:11:25;99065.14;;;16.45;44.64
46574;BME280;32299;53.366;-1.544;2022-07-03T07:13:52;99070.13;;;16.12;45.98
46574;BME280;32299;53.366;-1.544;2022-07-03T07:16:19;99074.58;;;15.01;48.25
46574;BME280;32299;53.366;-1.544;2022-07-03T07:18:46;99071.43;;;14.69;50.74
46574;BME280;32299;53.366;-1.544;2022-07-03T07:21:13;99064.76;;;15.81;47.77
46574;BME280;32299;53.366;-1.544;2022-07-03T07:23:40;99061.02;;;16.50;46.18
46574;BME280;32299;53.366;-1.544;2022-07-03T07:26:07;99068.12;;;15.82;47.15
46574;BME280;32299;53.366;-1.544;2022-07-03T07:28:35;99066.30;;;16.45;46.30
46574;BME280;32299;53.366;-1.544;2022-07-03T07:31:03;99067.29;;;16.51;46.46
46574;BME280;32299;53.366;-1.544;2022-07-03T07:33:30;99070.26;;;16.47;45.24
46574;BME280;32299;53.366;-1.544;2022-07-03T07:35:56;99070.09;;;16.65;44.99
46574;BME280;32299;53.366;-1.544;2022-07-03T07:38:24;99070.50;;;17.02;44.31
46574;BME280;32299;53.366;-1.544;2022-07-03T07:40:51;99073.09;;;16.56;45.64
46574;BME280;32299;53.366;-1.544;2022-07-03T07:43:18;99071.83;;;16.59;45.94
46574;BME280;32299;53.366;-1.544;2022-07-03T07:45:45;99073.58;;;16.28;46.55
46574;BME280;32299;53.366;-1.544;2022-07-03T07:48:12;99068.79;;;16.85;45.12
46574;BME280;32299;53.366;-1.544;2022-07-03T07:50:40;99070.43;;;16.83;46.35
46574;BME280;32299;53.366;-1.544;2022-07-03T07:53:07;99069.54;;;16.47;46.32
46574;BME280;32299;53.366;-1.544;2022-07-03T07:55:34;99080.15;;;14.43;52.12
46574;BME280;32299;53.366;-1.544;2022-07-03T07:58:02;99075.65;;;13.90;55.56
46574;BME280;32299;53.366;-1.544;2022-07-03T08:00:29;99081.94;;;15.70;50.65
46574;BME280;32299;53.366;-1.544;2022-07-03T08:02:56;99084.07;;;15.38;52.16
46574;BME280;32299;53.366;-1.544;2022-07-03T08:05:24;99080.53;;;16.06;50.90
46574;BME280;32299;53.366;-1.544;2022-07-03T08:07:51;99075.49;;;16.38;50.00
46574;BME280;32299;53.366;-1.544;2022-07-03T08:10:18;99072.16;;;16.38;48.88
46574;BME280;32299;53.366;-1.544;2022-07-03T08:12:45;99071.75;;;16.24;48.97
46574;BME280;32299;53.366;-1.544;2022-07-03T08:15:13;99080.68;;;15.75;50.36
46574;BME280;32299;53.366;-1.544;2022-07-03T08:17:40;99072.27;;;16.81;48.13
46574;BME280;32299;53.366;-1.544;2022-07-03T08:20:08;99076.51;;;16.80;48.99
46574;BME280;32299;53.366;-1.544;2022-07-03T08:22:36;99082.19;;;16.30;48.99
46574;BME280;32299;53.366;-1.544;2022-07-03T08:25:03;99078.56;;;17.03;48.11
46574;BME280;32299;53.366;-1.544;2022-07-03T08:27:31;99083.79;;;17.52;46.83
46574;BME280;32299;53.366;-1.544;2022-07-03T08:29:58;99090.24;;;17.20;46.25
46574;BME280;32299;53.366;-1.544;2022-07-03T08:32:26;99094.94;;;17.06;46.84
46574;BME280;32299;53.366;-1.544;2022-07-03T08:34:52;99093.87;;;17.93;44.40
46574;BME280;32299;53.366;-1.544;2022-07-03T08:37:19;99099.80;;;17.11;46.53
46574;BME280;32299;53.366;-1.544;2022-07-03T08:39:46;99097.66;;;17.75;46.03
46574;BME280;32299;53.366;-1.544;2022-07-03T08:42:14;99099.73;;;16.45;47.62
46574;BME280;32299;53.366;-1.544;2022-07-03T08:44:43;99097.45;;;16.44;46.44
46574;BME280;32299;53.366;-1.544;2022-07-03T08:47:12;99100.80;;;17.81;44.26
46574;BME280;32299;53.366;-1.544;2022-07-03T08:49:40;99104.87;;;17.40;45.04
46574;BME280;32299;53.366;-1.544;2022-07-03T08:52:08;99105.25;;;16.54;45.37
46574;BME280;32299;53.366;-1.544;2022-07-03T08:54:35;99109.25;;;17.46;45.33
46574;BME280;32299;53.366;-1.544;2022-07-03T08:57:04;99111.57;;;16.99;45.08
46574;BME280;32299;53.366;-1.544;2022-07-03T08:59:36;99114.61;;;17.06;44.65
46574;BME280;32299;53.366;-1.544;2022-07-03T09:02:04;99112.99;;;16.34;45.23
46574;BME280;32299;53.366;-1.544;2022-07-03T09:04:32;99117.73;;;17.63;44.27
46574;BME280;32299;53.366;-1.544;2022-07-03T09:07:00;99117.04;;;16.67;46.43
46574;BME280;32299;53.366;-1.544;2022-07-03T09:09:28;99119.29;;;17.29;44.65
46574;BME280;32299;53.366;-1.544;2022-07-03T09:11:55;99117.15;;;17.85;43.84
46574;BME280;32299;53.366;-1.544;2022-07-03T09:14:23;99122.20;;;17.46;45.03
46574;BME280;32299;53.366;-1.544;2022-07-03T09:16:49;99125.39;;;17.13;45.14
46574;BME280;32299;53.366;-1.544;2022-07-03T09:19:39;99127.70;;;16.70;45.47
46574;BME280;32299;53.366;-1.544;2022-07-03T09:22:22;99130.96;;;17.06;44.93
46574;BME280;32299;53.366;-1.544;2022-07-03T09:24:52;99134.95;;;18.10;43.76
46574;BME280;32299;53.366;-1.544;2022-07-03T09:27:22;99129.73;;;17.69;43.81
46574;BME280;32299;53.366;-1.544;2022-07-03T09:30:07;99127.24;;;18.30;43.09
46574;BME280;32299;53.366;-1.544;2022-07-03T09:32:42;99128.96;;;18.92;42.69
46574;BME280;32299;53.366;-1.544;2022-07-03T09:35:13;99125.02;;;19.45;42.13
46574;BME280;32299;53.366;-1.544;2022-07-03T09:37:40;99128.91;;;18.53;43.02
46574;BME280;32299;53.366;-1.544;2022-07-03T09:40:09;99135.12;;;18.75;42.28
46574;BME280;32299;53.366;-1.544;2022-07-03T09:42:36;99134.70;;;18.73;42.04
46574;BME280;32299;53.366;-1.544;2022-07-03T09:45:03;99136.90;;;18.59;41.99
46574;BME280;32299;53.366;-1.544;2022-07-03T09:47:31;99140.86;;;17.73;43.17
46574;BME280;32299;53.366;-1.544;2022-07-03T09:49:58;99144.94;;;17.83;43.31
46574;BME280;32299;53.366;-1.544;2022-07-03T09:52:27;99147.38;;;18.03;43.76
46574;BME280;32299;53.366;-1.544;2022-07-03T09:54:55;99146.04;;;18.47;43.06
46574;BME280;32299;53.366;-1.544;2022-07-03T09:57:22;99146.11;;;18.80;43.40
46574;BME280;32299;53.366;-1.544;2022-07-03T09:59:49;99146.91;;;18.30;44.53
46574;BME280;32299;53.366;-1.544;2022-07-03T10:02:16;99147.47;;;18.76;42.82
46574;BME280;32299;53.366;-1.544;2022-07-03T10:04:43;99146.79;;;17.92;43.38
46574;BME280;32299;53.366;-1.544;2022-07-03T10:07:10;99147.56;;;18.40;41.89
46574;BME280;32299;53.366;-1.544;2022-07-03T10:09:37;99144.89;;;19.21;42.11
46574;BME280;32299;53.366;-1.544;2022-07-03T10:12:05;99154.18;;;17.01;43.74
46574;BME280;32299;53.366;-1.544;2022-07-03T10:14:32;99163.40;;;16.60;45.39
46574;BME280;32299;53.366;-1.544;2022-07-03T10:17:00;99166.42;;;17.11;43.96
46574;BME280;32299;53.366;-1.544;2022-07-03T10:19:28;99166.35;;;17.16;43.23
46574;BME280;32299;53.366;-1.544;2022-07-03T10:21:57;99168.43;;;16.34;45.53
46574;BME280;32299;53.366;-1.544;2022-07-03T10:24:26;99166.08;;;17.64;43.28
46574;BME280;32299;53.366;-1.544;2022-07-03T10:26:54;99163.03;;;17.46;43.69
46574;BME280;32299;53.366;-1.544;2022-07-03T10:29:23;99166.28;;;17.43;44.41
46574;BME280;32299;53.366;-1.544;2022-07-03T10:31:51;99171.26;;;16.39;44.64
46574;BME280;32299;53.366;-1.544;2022-07-03T10:34:20;99171.80;;;16.94;44.43
46574;BME280;32299;53.366;-1.544;2022-07-03T10:36:49;99174.55;;;16.85;44.86
46574;BME280;32299;53.366;-1.544;2022-07-03T10:39:25;99180.79;;;16.96;44.96
46574;BME280;32299;53.366;-1.544;2022-07-03T10:41:56;99182.98;;;16.48;45.74
46574;BME280;32299;53.366;-1.544;2022-07-03T10:44:24;99178.61;;;17.25;44.36
46574;BME280;32299;53.366;-1.544;2022-07-03T10:46:50;99181.41;;;17.20;44.64
46574;BME280;32299;53.366;-1.544;2022-07-03T10:49:17;99178.80;;;17.77;43.74
46574;BME280;32299;53.366;-1.544;2022-07-03T10:51:54;99179.30;;;18.11;44.20
46574;BME280;32299;53.366;-1.544;2022-07-03T10:54:24;99180.93;;;18.05;43.93
46574;BME280;32299;53.366;-1.544;2022-07-03T10:57:09;99183.50;;;17.82;43.71
46574;BME280;32299;53.366;-1.544;2022-07-03T11:00:06;99182.83;;;17.05;44.03
46574;BME280;32299;53.366;-1.544;2022-07-03T11:02:36;99180.58;;;17.98;43.41
46574;BME280;32299;53.366;-1.544;2022-07-03T11:05:16;99177.46;;;17.37;42.70
46574;BME280;32299;53.366;-1.544;2022-07-03T11:08:02;99172.52;;;18.36;43.33
46574;BME280;32299;53.366;-1.544;2022-07-03T11:10:31;99171.57;;;18.30;42.96
46574;BME280;32299;53.366;-1.544;2022-07-03T11:13:00;99175.81;;;17.81;42.53
46574;BME280;32299;53.366;-1.544;2022-07-03T11:15:29;99177.42;;;18.31;41.83
46574;BME280;32299;53.366;-1.544;2022-07-03T11:18:16;99179.62;;;18.15;41.95
46574;BME280;32299;53.366;-1.544;2022-07-03T11:21:21;99182.55;;;19.04;40.49
46574;BME280;32299;53.366;-1.544;2022-07-03T11:24:43;99183.88;;;19.99;41.54
46574;BME280;32299;53.366;-1.544;2022-07-03T11:27:16;99183.18;;;19.06;42.12
46574;BME280;32299;53.366;-1.544;2022-07-03T11:29:50;99182.15;;;19.14;40.50
46574;BME280;32299;53.366;-1.544;2022-07-03T11:32:52;99179.90;;;18.37;42.00
46574;BME280;32299;53.366;-1.544;2022-07-03T11:35:53;99177.01;;;19.54;40.96
46574;BME280;32299;53.366;-1.544;2022-07-03T11:38:23;99176.13;;;18.79;39.82
46574;BME280;32299;53.366;-1.544;2022-07-03T11:40:52;99175.55;;;17.80;40.09
46574;BME280;32299;53.366;-1.544;2022-07-03T11:43:20;99169.89;;;18.94;39.82
46574;BME280;32299;53.366;-1.544;2022-07-03T11:45:48;99174.03;;;18.45;38.93
46574;BME280;32299;53.366;-1.544;2022-07-03T11:48:18;99173.78;;;19.58;41.64
46574;BME280;32299;53.366;-1.544;2022-07-03T11:50:48;99170.81;;;19.13;37.39
46574;BME280;32299;53.366;-1.544;2022-07-03T11:53:22;99172.56;;;17.81;38.47
46574;BME280;32299;53.366;-1.544;2022-07-03T11:55:51;99177.24;;;17.84;41.12
46574;BME280;32299;53.366;-1.544;2022-07-03T11:58:19;99182.70;;;18.36;39.90
46574;BME280;32299;53.366;-1.544;2022-07-03T12:00:47;99178.13;;;18.34;40.21
46574;BME280;32299;53.366;-1.544;2022-07-03T12:03:17;99175.42;;;20.24;39.79
46574;BME280;32299;53.366;-1.544;2022-07-03T12:05:52;99185.98;;;18.42;37.88
46574;BME280;32299;53.366;-1.544;2022-07-03T12:08:29;99180.76;;;19.58;40.03
46574;BME280;32299;53.366;-1.544;2022-07-03T12:11:00;99187.86;;;18.74;40.04
46574;BME280;32299;53.366;-1.544;2022-07-03T12:13:28;99191.31;;;18.89;40.65
46574;BME280;32299;53.366;-1.544;2022-07-03T12:16:02;99182.53;;;19.75;38.16
46574;BME280;32299;53.366;-1.544;2022-07-03T12:18:48;99182.69;;;18.14;40.09
46574;BME280;32299;53.366;-1.544;2022-07-03T12:21:17;99180.73;;;18.72;41.06
46574;BME280;32299;53.366;-1.544;2022-07-03T12:23:46;99183.83;;;19.76;42.46
46574;BME280;32299;53.366;-1.544;2022-07-03T12:26:26;99177.67;;;19.38;36.36
46574;BME280;32299;53.366;-1.544;2022-07-03T12:28:53;99192.86;;;19.74;37.04
46574;BME280;32299;53.366;-1.544;2022-07-03T12:31:21;99188.67;;;20.17;38.55
46574;BME280;32299;53.366;-1.544;2022-07-03T12:33:49;99183.94;;;21.03;39.02
46574;BME280;32299;53.366;-1.544;2022-07-03T12:36:15;99174.32;;;22.12;38.22
46574;BME280;32299;53.366;-1.544;2022-07-03T12:38:47;99178.06;;;23.03;37.42
46574;BME280;32299;53.366;-1.544;2022-07-03T12:41:15;99184.15;;;21.92;35.58
46574;BME280;32299;53.366;-1.544;2022-07-03T12:43:48;99186.80;;;21.75;35.26
46574;BME280;32299;53.366;-1.544;2022-07-03T12:46:17;99191.29;;;22.76;33.38
46574;BME280;32299;53.366;-1.544;2022-07-03T12:48:46;99191.97;;;23.10;33.86
46574;BME280;32299;53.366;-1.544;2022-07-03T12:51:14;99183.81;;;23.76;33.86
46574;BME280;32299;53.366;-1.544;2022-07-03T12:53:42;99181.23;;;23.33;30.63
46574;BME280;32299;53.366;-1.544;2022-07-03T12:56:10;99180.75;;;23.10;30.65
46574;BME280;32299;53.366;-1.544;2022-07-03T12:58:39;99179.47;;;23.08;32.28
46574;BME280;32299;53.366;-1.544;2022-07-03T13:01:07;99189.71;;;20.76;32.78
46574;BME280;32299;53.366;-1.544;2022-07-03T13:03:49;99175.89;;;22.66;34.93
46574;BME280;32299;53.366;-1.544;2022-07-03T13:06:16;99184.19;;;23.17;34.06